createdAt,value
2023-05-11T00:00:17.000Z,1.7
2023-05-11T00:01:34.000Z,1.7
2023-05-11T00:03:04.000Z,1.3
2023-05-11T00:04:35.000Z,2.1
2023-05-11T00:06:05.000Z,1.4
2023-05-11T00:07:36.000Z,0.9
2023-05-11T00:09:06.000Z,1.4
2023-05-11T00:10:37.000Z,1.4
2023-05-11T00:12:07.000Z,0.9
2023-05-11T00:13:38.000Z,1.1
2023-05-11T00:15:08.000Z,0.9
2023-05-11T00:16:25.000Z,0.7
2023-05-11T00:17:42.000Z,1.2
2023-05-11T00:19:13.000Z,1.4
2023-05-11T00:20:43.000Z,1.9
2023-05-11T00:22:14.000Z,1.4
2023-05-11T00:23:44.000Z,1.4
2023-05-11T00:25:15.000Z,1.5
2023-05-11T00:26:45.000Z,1.3
2023-05-11T00:28:16.000Z,1.4
2023-05-11T00:29:46.000Z,3
2023-05-11T00:31:17.000Z,1.2
2023-05-11T00:32:34.000Z,1.4
2023-05-11T00:33:51.000Z,2.4
2023-05-11T00:35:21.000Z,1.6
2023-05-11T00:36:52.000Z,1.6
2023-05-11T00:38:22.000Z,1.1
2023-05-11T00:39:53.000Z,1.8
2023-05-11T00:41:23.000Z,1.5
2023-05-11T00:42:54.000Z,1
2023-05-11T00:44:24.000Z,1.8
2023-05-11T00:45:55.000Z,2
2023-05-11T00:47:25.000Z,1.3
2023-05-11T00:48:42.000Z,1.3
2023-05-11T00:49:59.000Z,0.7
2023-05-11T00:51:30.000Z,1.1
2023-05-11T00:53:00.000Z,1.3
2023-05-11T00:54:31.000Z,1.8
2023-05-11T00:56:01.000Z,1.4
2023-05-11T00:57:32.000Z,1.9
2023-05-11T00:59:02.000Z,1.3
2023-05-11T01:00:33.000Z,0.9
2023-05-11T01:02:03.000Z,0.7
2023-05-11T01:03:34.000Z,0.7
2023-05-11T01:04:51.000Z,1.2
2023-05-11T01:06:07.000Z,2.7
2023-05-11T01:07:38.000Z,1
2023-05-11T01:09:08.000Z,1.6
2023-05-11T01:10:39.000Z,1
2023-05-11T01:12:09.000Z,1.7
2023-05-11T01:13:40.000Z,1.4
2023-05-11T01:15:10.000Z,1.2
2023-05-11T01:16:41.000Z,1.6
2023-05-11T01:18:11.000Z,1.2
2023-05-11T01:19:42.000Z,1.6
2023-05-11T01:20:59.000Z,1
2023-05-11T01:22:16.000Z,1.4
2023-05-11T01:23:46.000Z,0.7
2023-05-11T01:25:17.000Z,2.2
2023-05-11T01:26:47.000Z,1.4
2023-05-11T01:28:18.000Z,1.7
2023-05-11T01:29:48.000Z,1.6
2023-05-11T01:31:19.000Z,1.2
2023-05-11T01:32:49.000Z,0.8
2023-05-11T01:34:20.000Z,1.9
2023-05-11T01:35:50.000Z,1.2
2023-05-11T01:37:07.000Z,1.4
2023-05-11T01:38:24.000Z,1.3
2023-05-11T01:40:03.000Z,1.6
2023-05-11T01:41:33.000Z,1.2
2023-05-11T01:43:04.000Z,1.2
2023-05-11T01:44:34.000Z,0.6
2023-05-11T01:46:05.000Z,1.6
2023-05-11T01:47:35.000Z,2.8
2023-05-11T01:49:06.000Z,3.9
2023-05-11T01:50:36.000Z,1.8
2023-05-11T01:52:07.000Z,2
2023-05-11T01:53:24.000Z,1.5
2023-05-11T01:54:41.000Z,1.1
2023-05-11T01:56:11.000Z,0.9
2023-05-11T01:57:42.000Z,1.9
2023-05-11T01:59:12.000Z,1.3
2023-05-11T02:00:43.000Z,1.4
2023-05-11T02:02:13.000Z,1.3
2023-05-11T02:03:44.000Z,2.1
2023-05-11T02:05:14.000Z,1.2
2023-05-11T02:06:45.000Z,2
2023-05-11T02:08:15.000Z,4.2
2023-05-11T02:09:32.000Z,1.7
2023-05-11T02:10:49.000Z,1.3
2023-05-11T02:12:20.000Z,1.1
2023-05-11T02:13:50.000Z,1.5
2023-05-11T02:15:21.000Z,0.9
2023-05-11T02:16:51.000Z,1.2
2023-05-11T02:18:22.000Z,0.8
2023-05-11T02:19:52.000Z,2.3
2023-05-11T02:21:23.000Z,1.2
2023-05-11T02:22:53.000Z,1.2
2023-05-11T02:24:24.000Z,6.3
2023-05-11T02:25:41.000Z,1.4
2023-05-11T02:26:58.000Z,1.1
2023-05-11T02:28:28.000Z,1.3
2023-05-11T02:29:59.000Z,1.1
2023-05-11T02:31:29.000Z,1.7
2023-05-11T02:33:00.000Z,1
2023-05-11T02:34:30.000Z,0.8
2023-05-11T02:36:01.000Z,0.9
2023-05-11T02:37:31.000Z,1.6
2023-05-11T02:39:02.000Z,1.2
2023-05-11T02:40:32.000Z,1.4
2023-05-11T02:41:49.000Z,1.4
2023-05-11T02:43:06.000Z,0.8
2023-05-11T02:44:37.000Z,1.1
2023-05-11T02:46:07.000Z,1.1
2023-05-11T02:47:38.000Z,1.8
2023-05-11T02:49:08.000Z,1.5
2023-05-11T02:50:39.000Z,1.2
2023-05-11T02:52:09.000Z,2
2023-05-11T02:53:40.000Z,1.3
2023-05-11T02:55:10.000Z,2.5
2023-05-11T02:56:41.000Z,1.8
2023-05-11T02:57:57.000Z,1.6
2023-05-11T02:59:14.000Z,2.1
2023-05-11T03:00:45.000Z,1.1
2023-05-11T03:02:15.000Z,4.4
2023-05-11T03:03:46.000Z,1.9
2023-05-11T03:05:16.000Z,0.9
2023-05-11T03:06:47.000Z,1.5
2023-05-11T03:08:18.000Z,0.7
2023-05-11T03:09:48.000Z,0.6
2023-05-11T03:11:19.000Z,1.9
2023-05-11T03:12:49.000Z,1.6
2023-05-11T03:14:06.000Z,1.5
2023-05-11T03:15:23.000Z,1.6
2023-05-11T03:16:54.000Z,1.4
2023-05-11T03:18:24.000Z,0.8
2023-05-11T03:19:55.000Z,1.8
2023-05-11T03:21:25.000Z,1.7
2023-05-11T03:24:26.000Z,2.2
2023-05-11T03:25:57.000Z,1.5
2023-05-11T03:28:58.000Z,0.8
2023-05-11T03:30:15.000Z,0.7
2023-05-11T03:31:32.000Z,1.5
2023-05-11T03:33:02.000Z,2.1
2023-05-11T03:34:33.000Z,2
2023-05-11T03:36:03.000Z,1
2023-05-11T03:37:34.000Z,1.9
2023-05-11T03:39:04.000Z,3.5
2023-05-11T03:40:35.000Z,1.1
2023-05-11T03:42:05.000Z,3.3
2023-05-11T03:43:36.000Z,1.2
2023-05-11T03:45:06.000Z,2.2
2023-05-11T03:46:23.000Z,1.4
2023-05-11T03:47:40.000Z,1.5
2023-05-11T03:49:11.000Z,1.5
2023-05-11T03:50:41.000Z,1
2023-05-11T03:52:12.000Z,1.3
2023-05-11T03:53:42.000Z,1.9
2023-05-11T03:55:13.000Z,1.8
2023-05-11T03:56:43.000Z,1.3
2023-05-11T03:58:14.000Z,2.2
2023-05-11T03:59:44.000Z,0.9
2023-05-11T04:02:32.000Z,1.6
2023-05-11T04:03:49.000Z,0.8
2023-05-11T04:05:19.000Z,0.6
2023-05-11T04:06:50.000Z,0.8
2023-05-11T04:08:20.000Z,1.8
2023-05-11T04:09:51.000Z,0.8
2023-05-11T04:11:21.000Z,0.9
2023-05-11T04:12:52.000Z,1.3
2023-05-11T04:14:22.000Z,1.2
2023-05-11T04:15:53.000Z,1.7
2023-05-11T04:17:23.000Z,1.3
2023-05-11T04:18:40.000Z,1
2023-05-11T04:19:57.000Z,1.3
2023-05-11T04:21:28.000Z,1.1
2023-05-11T04:22:58.000Z,0.8
2023-05-11T04:24:29.000Z,1.7
2023-05-11T04:25:59.000Z,1.8
2023-05-11T04:27:30.000Z,1
2023-05-11T04:29:00.000Z,2.1
2023-05-11T04:30:31.000Z,2.1
2023-05-11T04:32:01.000Z,1.7
2023-05-11T04:33:32.000Z,1.2
2023-05-11T04:34:49.000Z,1.9
2023-05-11T04:36:06.000Z,1.3
2023-05-11T04:37:36.000Z,1.5
2023-05-11T04:40:37.000Z,1.7
2023-05-11T04:42:08.000Z,1
2023-05-11T04:43:38.000Z,0.8
2023-05-11T04:45:09.000Z,3.1
2023-05-11T04:46:39.000Z,1.7
2023-05-11T04:48:10.000Z,0.8
2023-05-11T04:49:40.000Z,1
2023-05-11T04:50:57.000Z,1.7
2023-05-11T04:52:14.000Z,0.6
2023-05-11T04:53:44.000Z,1
2023-05-11T04:55:15.000Z,1.8
2023-05-11T04:56:45.000Z,0.9
2023-05-11T04:58:16.000Z,2.2
2023-05-11T04:59:46.000Z,1.8
2023-05-11T05:01:17.000Z,1.6
2023-05-11T05:02:47.000Z,1
2023-05-11T05:04:18.000Z,0.7
2023-05-11T05:05:48.000Z,1.4
2023-05-11T05:07:05.000Z,1.5
2023-05-11T05:08:22.000Z,1.6
2023-05-11T05:09:53.000Z,1.1
2023-05-11T05:11:23.000Z,1.1
2023-05-11T05:12:54.000Z,0.6
2023-05-11T05:14:24.000Z,1
2023-05-11T05:15:55.000Z,1
2023-05-11T05:17:25.000Z,1
2023-05-11T05:18:56.000Z,3.7
2023-05-11T05:20:26.000Z,0.6
2023-05-11T05:21:57.000Z,1
2023-05-11T05:23:14.000Z,0.6
2023-05-11T05:24:31.000Z,2
2023-05-11T05:26:01.000Z,1
2023-05-11T05:27:32.000Z,0.6
2023-05-11T05:29:02.000Z,1.2
2023-05-11T05:30:33.000Z,0.8
2023-05-11T05:32:03.000Z,1
2023-05-11T05:33:34.000Z,1
2023-05-11T05:35:05.000Z,1.3
2023-05-11T05:36:35.000Z,0.9
2023-05-11T05:38:06.000Z,1.3
2023-05-11T05:39:23.000Z,0.8
2023-05-11T05:40:39.000Z,1.7
2023-05-11T05:42:10.000Z,1.8
2023-05-11T05:43:41.000Z,1.4
2023-05-11T05:45:11.000Z,1.8
2023-05-11T05:46:42.000Z,1.4
2023-05-11T05:48:12.000Z,1.7
2023-05-11T05:49:43.000Z,1.1
2023-05-11T05:51:13.000Z,1.4
2023-05-11T05:52:44.000Z,1.3
2023-05-11T05:54:14.000Z,2.3
2023-05-11T05:55:31.000Z,2.2
2023-05-11T05:56:48.000Z,1.6
2023-05-11T05:58:19.000Z,1.1
2023-05-11T05:59:49.000Z,1.7
2023-05-11T06:01:20.000Z,1.2
2023-05-11T06:02:50.000Z,3.4
2023-05-11T06:04:21.000Z,2
2023-05-11T06:05:51.000Z,1.5
2023-05-11T06:07:22.000Z,2.8
2023-05-11T06:08:52.000Z,1.4
2023-05-11T06:10:23.000Z,1.6
2023-05-11T06:11:39.000Z,1.4
2023-05-11T06:12:56.000Z,2.7
2023-05-11T06:14:27.000Z,1.3
2023-05-11T06:15:57.000Z,2.1
2023-05-11T06:17:28.000Z,2.2
2023-05-11T06:18:58.000Z,3.6
2023-05-11T06:20:29.000Z,2
2023-05-11T06:21:59.000Z,2.6
2023-05-11T06:23:30.000Z,2.7
2023-05-11T06:25:00.000Z,1.5
2023-05-11T06:26:31.000Z,2.4
2023-05-11T06:27:48.000Z,1.6
2023-05-11T06:29:05.000Z,1.3
2023-05-11T06:30:35.000Z,2.5
2023-05-11T06:32:06.000Z,3.9
2023-05-11T06:33:36.000Z,3.4
2023-05-11T06:35:15.000Z,3
2023-05-11T06:36:45.000Z,2.6
2023-05-11T06:38:16.000Z,2.6
2023-05-11T06:39:46.000Z,1.9
2023-05-11T06:41:17.000Z,2.7
2023-05-11T06:42:47.000Z,2.2
2023-05-11T06:44:04.000Z,3.5
2023-05-11T06:45:21.000Z,4.9
2023-05-11T06:46:52.000Z,2.6
2023-05-11T06:48:22.000Z,2.7
2023-05-11T06:49:53.000Z,1.5
2023-05-11T06:51:23.000Z,1.8
2023-05-11T06:52:54.000Z,1.9
2023-05-11T06:54:25.000Z,2.2
2023-05-11T06:55:55.000Z,4
2023-05-11T06:57:26.000Z,2.9
2023-05-11T06:58:56.000Z,2
2023-05-11T07:00:13.000Z,4.8
2023-05-11T07:01:30.000Z,2.9
2023-05-11T07:03:01.000Z,2.7
2023-05-11T07:04:31.000Z,4
2023-05-11T07:06:02.000Z,2.5
2023-05-11T07:07:32.000Z,1.9
2023-05-11T07:09:03.000Z,2.6
2023-05-11T07:10:33.000Z,3.4
2023-05-11T07:12:04.000Z,2.4
2023-05-11T07:13:34.000Z,4.1
2023-05-11T07:15:05.000Z,3.9
2023-05-11T07:16:22.000Z,4.1
2023-05-11T07:17:39.000Z,4.5
2023-05-11T07:19:09.000Z,3.3
2023-05-11T07:20:40.000Z,2.4
2023-05-11T07:22:10.000Z,3.5
2023-05-11T07:25:11.000Z,3.1
2023-05-11T07:26:42.000Z,2.9
2023-05-11T07:28:12.000Z,3.5
2023-05-11T07:29:43.000Z,4.4
2023-05-11T07:31:13.000Z,3.2
2023-05-11T07:32:30.000Z,3
2023-05-11T07:33:47.000Z,4.1
2023-05-11T07:36:48.000Z,4.7
2023-05-11T07:38:18.000Z,3.5
2023-05-11T07:39:49.000Z,4.1
2023-05-11T07:41:19.000Z,3.2
2023-05-11T07:42:50.000Z,2.9
2023-05-11T07:44:20.000Z,3.9
2023-05-11T07:45:51.000Z,3.7
2023-05-11T07:47:21.000Z,4.4
2023-05-11T07:48:38.000Z,3
2023-05-11T07:49:55.000Z,3.2
2023-05-11T07:51:26.000Z,4.2
2023-05-11T07:52:56.000Z,3
2023-05-11T07:54:27.000Z,2.4
2023-05-11T07:55:57.000Z,4.3
2023-05-11T07:57:28.000Z,3.1
2023-05-11T07:58:58.000Z,3
2023-05-11T08:00:29.000Z,3
2023-05-11T08:01:59.000Z,3.1
2023-05-11T08:03:30.000Z,3.2
2023-05-11T08:04:47.000Z,4.5
2023-05-11T08:06:04.000Z,4.9
2023-05-11T08:07:34.000Z,2.7
2023-05-11T08:09:05.000Z,2.9
2023-05-11T08:10:35.000Z,3.4
2023-05-11T08:12:06.000Z,4.3
2023-05-11T08:13:36.000Z,2.9
2023-05-11T08:15:07.000Z,2.4
2023-05-11T08:16:37.000Z,2.1
2023-05-11T08:18:08.000Z,4.5
2023-05-11T08:19:38.000Z,3
2023-05-11T08:20:55.000Z,2.6
2023-05-11T08:22:12.000Z,3.6
2023-05-11T08:23:43.000Z,3.2
2023-05-11T08:25:13.000Z,3.9
2023-05-11T08:26:44.000Z,2.8
2023-05-11T08:28:14.000Z,3.5
2023-05-11T08:29:45.000Z,2.8
2023-05-11T08:31:15.000Z,3.5
2023-05-11T08:34:16.000Z,1.9
2023-05-11T08:35:47.000Z,3
2023-05-11T08:37:04.000Z,2.4
2023-05-11T08:39:51.000Z,2.6
2023-05-11T08:41:22.000Z,3.7
2023-05-11T08:42:52.000Z,2.5
2023-05-11T08:44:23.000Z,2.3
2023-05-11T08:45:53.000Z,2.5
2023-05-11T08:47:24.000Z,2.6
2023-05-11T08:48:54.000Z,2.3
2023-05-11T08:50:25.000Z,2.1
2023-05-11T08:51:55.000Z,3.2
2023-05-11T08:53:12.000Z,2.6
2023-05-11T08:54:29.000Z,1.2
2023-05-11T08:56:00.000Z,1.5
2023-05-11T08:57:30.000Z,1
2023-05-11T08:59:01.000Z,1.5
2023-05-11T09:00:31.000Z,0.8
2023-05-11T09:02:02.000Z,1.3
2023-05-11T09:03:32.000Z,1
2023-05-11T09:05:03.000Z,1.5
2023-05-11T09:06:33.000Z,0.7
2023-05-11T09:08:04.000Z,4.2
2023-05-11T09:09:21.000Z,20.4
2023-05-11T09:10:38.000Z,7.8
2023-05-11T09:12:08.000Z,4.2
2023-05-11T09:13:39.000Z,3.7
2023-05-11T09:15:09.000Z,5.8
2023-05-11T09:16:40.000Z,3.4
2023-05-11T09:18:10.000Z,4
2023-05-11T09:19:41.000Z,4.9
2023-05-11T09:22:42.000Z,5.7
2023-05-11T09:25:29.000Z,4.9
2023-05-11T09:26:46.000Z,5.1
2023-05-11T09:28:17.000Z,5.7
2023-05-11T09:31:18.000Z,6.8
2023-05-11T09:37:20.000Z,5.4
2023-05-11T09:38:50.000Z,5.1
2023-05-11T09:41:38.000Z,4.1
2023-05-11T09:42:55.000Z,4.2
2023-05-11T09:44:25.000Z,5.5
2023-05-11T09:45:56.000Z,3.8
2023-05-11T09:47:26.000Z,4.8
2023-05-11T09:48:57.000Z,4.2
2023-05-11T09:50:27.000Z,4.8
2023-05-11T09:51:58.000Z,3
2023-05-11T09:53:28.000Z,3.5
2023-05-11T09:54:59.000Z,4
2023-05-11T09:56:29.000Z,3.5
2023-05-11T09:57:46.000Z,4.4
2023-05-11T09:59:03.000Z,4.1
2023-05-11T10:00:34.000Z,3.2
2023-05-11T10:02:04.000Z,2.3
2023-05-11T10:05:05.000Z,3.7
2023-05-11T10:06:36.000Z,2.4
2023-05-11T10:09:37.000Z,3.6
2023-05-11T10:11:07.000Z,2.6
2023-05-11T10:12:38.000Z,3.2
2023-05-11T10:15:12.000Z,3.1
2023-05-11T10:16:42.000Z,3.2
2023-05-11T10:18:13.000Z,2.8
2023-05-11T10:19:43.000Z,4
2023-05-11T10:21:14.000Z,3.3
2023-05-11T10:22:44.000Z,4.6
2023-05-11T10:24:15.000Z,3.3
2023-05-11T10:25:45.000Z,4.7
2023-05-11T10:27:16.000Z,3.7
2023-05-11T10:28:46.000Z,3.4
2023-05-11T10:30:03.000Z,3.6
2023-05-11T10:31:20.000Z,5.8
2023-05-11T10:32:50.000Z,4.3
2023-05-11T10:34:21.000Z,5.2
2023-05-11T10:35:51.000Z,3.9
2023-05-11T10:37:22.000Z,5
2023-05-11T10:40:23.000Z,3.8
2023-05-11T10:41:53.000Z,4.2
2023-05-11T10:43:24.000Z,4.1
2023-05-11T10:44:54.000Z,3.5
2023-05-11T10:46:11.000Z,3.9
2023-05-11T10:47:28.000Z,4.4
2023-05-11T10:48:59.000Z,3.7
2023-05-11T10:50:29.000Z,3
2023-05-11T10:52:00.000Z,3.9
2023-05-11T10:53:30.000Z,3.4
2023-05-11T10:55:01.000Z,2.7
2023-05-11T10:56:31.000Z,2.4
2023-05-11T10:58:02.000Z,2.3
2023-05-11T10:59:32.000Z,3.9
2023-05-11T11:01:03.000Z,2.6
2023-05-11T11:03:37.000Z,4
2023-05-11T11:05:07.000Z,2.1
2023-05-11T11:06:38.000Z,4.2
2023-05-11T11:08:08.000Z,2.8
2023-05-11T11:09:39.000Z,2.3
2023-05-11T11:11:09.000Z,2.6
2023-05-11T11:12:40.000Z,2.8
2023-05-11T11:14:11.000Z,2.8
2023-05-11T11:15:41.000Z,2.6
2023-05-11T11:17:12.000Z,2.5
2023-05-11T11:18:28.000Z,2.4
2023-05-11T11:19:45.000Z,2.7
2023-05-11T11:21:16.000Z,3.3
2023-05-11T11:22:46.000Z,2.9
2023-05-11T11:24:17.000Z,2.6
2023-05-11T11:25:48.000Z,3.1
2023-05-11T11:27:18.000Z,3.3
2023-05-11T11:28:49.000Z,4.2
2023-05-11T11:30:27.000Z,3.9
2023-05-11T11:31:58.000Z,5.1
2023-05-11T11:33:28.000Z,5.8
2023-05-11T11:34:45.000Z,6.2
2023-05-11T11:36:02.000Z,7.2
2023-05-11T11:37:33.000Z,7.1
2023-05-11T11:39:03.000Z,13.9
2023-05-11T11:40:34.000Z,19.4
2023-05-11T11:42:04.000Z,20.9
2023-05-11T11:43:35.000Z,27
2023-05-11T11:45:05.000Z,32
2023-05-11T11:46:36.000Z,39
2023-05-11T11:48:06.000Z,35.8
2023-05-11T11:49:37.000Z,43.1
2023-05-11T11:50:54.000Z,37.6
2023-05-11T11:52:11.000Z,32.2
2023-05-11T11:53:41.000Z,32.9
2023-05-11T11:55:12.000Z,32.9
2023-05-11T11:56:42.000Z,41.6
2023-05-11T11:58:13.000Z,30.6
2023-05-11T11:59:43.000Z,29.3
2023-05-11T12:01:14.000Z,33.7
2023-05-11T12:02:44.000Z,30.1
2023-05-11T12:04:15.000Z,28
2023-05-11T12:05:45.000Z,26.6
2023-05-11T12:07:02.000Z,21.9
2023-05-11T12:08:19.000Z,21.4
2023-05-11T12:09:50.000Z,12.2
2023-05-11T12:11:20.000Z,11.9
2023-05-11T12:12:51.000Z,14.9
2023-05-11T12:14:21.000Z,18.8
2023-05-11T12:15:52.000Z,16.2
2023-05-11T12:17:22.000Z,13.5
2023-05-11T12:18:53.000Z,10.1
2023-05-11T12:20:23.000Z,10.7
2023-05-11T12:21:54.000Z,11
2023-05-11T12:23:11.000Z,13.8
2023-05-11T12:24:28.000Z,9.9
2023-05-11T12:25:58.000Z,12.4
2023-05-11T12:27:29.000Z,11.1
2023-05-11T12:28:59.000Z,8.6
2023-05-11T12:30:30.000Z,14.5
2023-05-11T12:33:31.000Z,13.5
2023-05-11T12:35:01.000Z,14.8
2023-05-11T12:36:32.000Z,12.5
2023-05-11T12:38:02.000Z,15
2023-05-11T12:40:36.000Z,10.8
2023-05-11T12:42:07.000Z,12.6
2023-05-11T12:43:37.000Z,9.8
2023-05-11T12:45:08.000Z,8.7
2023-05-11T12:46:38.000Z,7.3
2023-05-11T12:48:09.000Z,8
2023-05-11T12:49:39.000Z,6.5
2023-05-11T12:51:10.000Z,6.4
2023-05-11T12:52:40.000Z,7
2023-05-11T12:55:28.000Z,5.9
2023-05-11T12:56:45.000Z,5.1
2023-05-11T12:58:15.000Z,5.4
2023-05-11T12:59:46.000Z,4.7
2023-05-11T13:01:16.000Z,6.3
2023-05-11T13:02:47.000Z,5
2023-05-11T13:04:18.000Z,4.8
2023-05-11T13:05:48.000Z,3.4
2023-05-11T13:07:19.000Z,3.3
2023-05-11T13:08:49.000Z,3
2023-05-11T13:10:20.000Z,3.7
2023-05-11T13:11:37.000Z,2.9
2023-05-11T13:12:53.000Z,2.5
2023-05-11T13:14:24.000Z,4
2023-05-11T13:15:55.000Z,4.8
2023-05-11T13:17:25.000Z,2.3
2023-05-11T13:18:56.000Z,2.6
2023-05-11T13:20:26.000Z,2.3
2023-05-11T13:21:57.000Z,2.1
2023-05-11T13:24:58.000Z,3.3
2023-05-11T13:26:28.000Z,2.2
2023-05-11T13:27:45.000Z,2.5
2023-05-11T13:29:02.000Z,5
2023-05-11T13:30:33.000Z,2.1
2023-05-11T13:32:03.000Z,4
2023-05-11T13:33:34.000Z,2.3
2023-05-11T13:35:04.000Z,2.8
2023-05-11T13:36:35.000Z,2.9
2023-05-11T13:38:05.000Z,2.4
2023-05-11T13:41:06.000Z,4.8
2023-05-11T13:42:37.000Z,3
2023-05-11T13:43:54.000Z,4.2
2023-05-11T13:45:11.000Z,3.4
2023-05-11T13:46:41.000Z,2.8
2023-05-11T13:48:12.000Z,3.6
2023-05-11T13:49:42.000Z,3.8
2023-05-11T13:51:13.000Z,3.9
2023-05-11T13:54:14.000Z,7.8
2023-05-11T13:55:44.000Z,5.2
2023-05-11T13:57:15.000Z,6.8
2023-05-11T14:00:02.000Z,9
2023-05-11T14:01:19.000Z,8
2023-05-11T14:04:20.000Z,9.4
2023-05-11T14:07:21.000Z,9.4
2023-05-11T14:08:52.000Z,7.7
2023-05-11T14:10:22.000Z,7.5
2023-05-11T14:11:53.000Z,7.6
2023-05-11T14:13:23.000Z,9.1
2023-05-11T14:16:11.000Z,9.3
2023-05-11T14:18:58.000Z,11.5
2023-05-11T14:20:29.000Z,9.9
2023-05-11T14:21:59.000Z,10.8
2023-05-11T14:25:00.000Z,8.6
2023-05-11T14:26:31.000Z,8.7
2023-05-11T14:28:01.000Z,7.8
2023-05-11T14:31:02.000Z,6.8
2023-05-11T14:32:19.000Z,8.5
2023-05-11T14:33:36.000Z,8.9
2023-05-11T14:35:07.000Z,9.1
2023-05-11T14:36:37.000Z,9.2
2023-05-11T14:38:08.000Z,9.5
2023-05-11T14:39:38.000Z,8.2
2023-05-11T14:41:09.000Z,9
2023-05-11T14:42:39.000Z,9.4
2023-05-11T14:44:10.000Z,7.5
2023-05-11T14:45:40.000Z,8.5
2023-05-11T14:47:11.000Z,10.1
2023-05-11T14:48:28.000Z,8.7
2023-05-11T14:49:45.000Z,8.1
2023-05-11T14:51:15.000Z,8.8
2023-05-11T14:52:46.000Z,9
2023-05-11T14:54:16.000Z,6.7
2023-05-11T14:55:47.000Z,8.7
2023-05-11T14:57:17.000Z,9.1
2023-05-11T14:58:48.000Z,9.1
2023-05-11T15:00:18.000Z,9.6
2023-05-11T15:01:49.000Z,9.7
2023-05-11T15:03:19.000Z,10
2023-05-11T15:04:36.000Z,12.7
2023-05-11T15:05:53.000Z,11.3
2023-05-11T15:07:24.000Z,10.7
2023-05-11T15:08:54.000Z,10.2
2023-05-11T15:10:25.000Z,9.7
2023-05-11T15:11:55.000Z,9.8
2023-05-11T15:13:26.000Z,10.4
2023-05-11T15:14:56.000Z,10.4
2023-05-11T15:16:27.000Z,8.9
2023-05-11T15:17:57.000Z,13.5
2023-05-11T15:19:28.000Z,9.6
2023-05-11T15:20:45.000Z,13.6
2023-05-11T15:22:02.000Z,11.3
2023-05-11T15:23:32.000Z,12.9
2023-05-11T15:25:03.000Z,9.8
2023-05-11T15:26:33.000Z,9.4
2023-05-11T15:28:04.000Z,11.3
2023-05-11T15:29:34.000Z,10.7
2023-05-11T15:31:05.000Z,9.6
2023-05-11T15:32:35.000Z,12.9
2023-05-11T15:34:06.000Z,11.8
2023-05-11T15:35:36.000Z,12.9
2023-05-11T15:36:53.000Z,11.7
2023-05-11T15:38:10.000Z,13.1
2023-05-11T15:39:40.000Z,13
2023-05-11T15:41:11.000Z,16.1
2023-05-11T15:42:42.000Z,12.2
2023-05-11T15:44:12.000Z,13.3
2023-05-11T15:45:43.000Z,12.8
2023-05-11T15:47:13.000Z,14.7
2023-05-11T15:48:44.000Z,14
2023-05-11T15:50:14.000Z,16.5
2023-05-11T15:51:45.000Z,16.6
2023-05-11T15:53:02.000Z,16.3
2023-05-11T15:54:19.000Z,15.5
2023-05-11T15:55:49.000Z,17
2023-05-11T15:58:50.000Z,18.9
2023-05-11T16:00:21.000Z,14.4
2023-05-11T16:01:51.000Z,17.4
2023-05-11T16:03:22.000Z,18.4
2023-05-11T16:06:23.000Z,17.2
2023-05-11T16:07:53.000Z,23.2
2023-05-11T16:09:10.000Z,21.9
2023-05-11T16:10:27.000Z,19.5
2023-05-11T16:11:58.000Z,20.9
2023-05-11T16:13:28.000Z,22.6
2023-05-11T16:14:59.000Z,24.6
2023-05-11T16:16:29.000Z,25.5
2023-05-11T16:19:30.000Z,23.8
2023-05-11T16:21:01.000Z,25
2023-05-11T16:22:31.000Z,26.1
2023-05-11T16:24:02.000Z,21.7
2023-05-11T16:25:19.000Z,22.3
2023-05-11T16:26:36.000Z,28.8
2023-05-11T16:28:06.000Z,21.2
2023-05-11T16:29:45.000Z,26.6
2023-05-11T16:31:15.000Z,24.4
2023-05-11T16:32:46.000Z,26.6
2023-05-11T16:34:16.000Z,28.7
2023-05-11T16:35:47.000Z,27.2
2023-05-11T16:37:17.000Z,30
2023-05-11T16:38:48.000Z,32
2023-05-11T16:41:35.000Z,29.6
2023-05-11T16:42:52.000Z,31.8
2023-05-11T16:44:23.000Z,31
2023-05-11T16:45:53.000Z,28.6
2023-05-11T16:47:24.000Z,36
2023-05-11T16:48:54.000Z,33.3
2023-05-11T16:50:25.000Z,30.5
2023-05-11T16:51:55.000Z,33.9
2023-05-11T16:53:26.000Z,33.6
2023-05-11T16:54:56.000Z,29.9
2023-05-11T16:56:27.000Z,36.9
2023-05-11T16:57:44.000Z,38.9
2023-05-11T16:59:01.000Z,36.3
2023-05-11T17:00:31.000Z,35.2
2023-05-11T17:02:02.000Z,35.2
2023-05-11T17:03:32.000Z,41.2
2023-05-11T17:05:03.000Z,32.4
2023-05-11T17:06:33.000Z,43.7
2023-05-11T17:08:04.000Z,37.3
2023-05-11T17:09:34.000Z,39.9
2023-05-11T17:11:05.000Z,41.4
2023-05-11T17:13:52.000Z,34.8
2023-05-11T17:15:09.000Z,35.2
2023-05-11T17:16:40.000Z,30.7
2023-05-11T17:18:10.000Z,39.3
2023-05-11T17:19:41.000Z,36.3
2023-05-11T17:21:12.000Z,41.7
2023-05-11T17:22:42.000Z,37.6
2023-05-11T17:24:13.000Z,34.3
2023-05-11T17:25:43.000Z,41.9
2023-05-11T17:27:14.000Z,38.5
2023-05-11T17:28:44.000Z,38.4
2023-05-11T17:30:01.000Z,38.8
2023-05-11T17:32:49.000Z,34.4
2023-05-11T17:34:19.000Z,41.6
2023-05-11T17:35:50.000Z,37.3
2023-05-11T17:37:20.000Z,42.4
2023-05-11T17:38:51.000Z,40.5
2023-05-11T17:40:21.000Z,56.1
2023-05-11T17:41:52.000Z,47.6
2023-05-11T17:43:22.000Z,40.5
2023-05-11T17:44:53.000Z,42
2023-05-11T17:46:10.000Z,49.4
2023-05-11T17:47:27.000Z,50.4
2023-05-11T17:48:57.000Z,42.1
2023-05-11T17:50:28.000Z,43
2023-05-11T17:51:58.000Z,53.2
2023-05-11T17:53:29.000Z,41
2023-05-11T17:54:59.000Z,54.5
2023-05-11T17:56:30.000Z,46.5
2023-05-11T17:58:00.000Z,43.7
2023-05-11T17:59:31.000Z,39.3
2023-05-11T18:01:01.000Z,53.5
2023-05-11T18:02:18.000Z,45.6
2023-05-11T18:03:35.000Z,48.2
2023-05-11T18:05:06.000Z,40.1
2023-05-11T18:06:36.000Z,48.7
2023-05-11T18:08:07.000Z,46.4
2023-05-11T18:09:37.000Z,51.6
2023-05-11T18:11:08.000Z,48.5
2023-05-11T18:12:38.000Z,48
2023-05-11T18:14:09.000Z,54.3
2023-05-11T18:15:39.000Z,47.9
2023-05-11T18:17:10.000Z,45.4
2023-05-11T18:18:27.000Z,47.6
2023-05-11T18:19:44.000Z,56.3
2023-05-11T18:21:14.000Z,46.8
2023-05-11T18:22:45.000Z,55.1
2023-05-11T18:24:15.000Z,56.9
2023-05-11T18:25:46.000Z,62.7
2023-05-11T18:27:16.720Z,62.3
2023-05-11T18:28:47.000Z,53.9
2023-05-11T18:30:17.000Z,64.2
2023-05-11T18:31:48.000Z,68.9
2023-05-11T18:34:35.000Z,77.9
2023-05-11T18:35:52.000Z,79.4
2023-05-11T18:37:23.000Z,73.3
2023-05-11T18:38:53.000Z,83.4
2023-05-11T18:40:24.000Z,78.2
2023-05-11T18:41:54.000Z,87.7
2023-05-11T18:43:25.000Z,84.3
2023-05-11T18:44:55.000Z,95.7
2023-05-11T18:46:26.000Z,102.1
2023-05-11T18:47:56.000Z,93.7
2023-05-11T18:49:27.000Z,83.9
2023-05-11T18:50:44.000Z,96.2
2023-05-11T18:52:01.000Z,101.8
2023-05-11T18:53:31.000Z,83.1
2023-05-11T18:55:02.000Z,102.8
2023-05-11T18:56:32.000Z,110.1
2023-05-11T18:58:03.000Z,101.4
2023-05-11T19:01:04.000Z,116.1
2023-05-11T19:02:34.000Z,119.2
2023-05-11T19:04:05.000Z,118.5
2023-05-11T19:05:35.000Z,97.2
2023-05-11T19:06:52.000Z,113.2
2023-05-11T19:08:09.000Z,113.6
2023-05-11T19:09:40.000Z,126.9
2023-05-11T19:11:10.000Z,110.5
2023-05-11T19:12:41.000Z,114.5
2023-05-11T19:14:11.000Z,132.4
2023-05-11T19:15:42.000Z,102.5
2023-05-11T19:17:12.000Z,131.5
2023-05-11T19:18:43.000Z,124.8
2023-05-11T19:20:13.000Z,127.2
2023-05-11T19:21:44.000Z,126.3
2023-05-11T19:23:01.000Z,124.3
2023-05-11T19:24:18.000Z,129.4
2023-05-11T19:25:48.867Z,116
2023-05-11T19:27:19.000Z,127.3
2023-05-11T19:28:49.000Z,143.8
2023-05-11T19:30:20.000Z,132.8
2023-05-11T19:31:50.000Z,103.6
2023-05-11T19:33:21.000Z,128
2023-05-11T19:34:51.000Z,146.4
2023-05-11T19:36:22.000Z,140.8
2023-05-11T19:37:52.000Z,148.7
2023-05-11T19:39:09.000Z,151.5
2023-05-11T19:40:26.000Z,136.6
2023-05-11T19:41:57.000Z,147.2
2023-05-11T19:43:27.000Z,137.7
2023-05-11T19:44:58.000Z,137.2
2023-05-11T19:46:28.000Z,137
2023-05-11T19:47:59.000Z,131
2023-05-11T19:49:29.000Z,126.6
2023-05-11T19:51:00.000Z,106.5
2023-05-11T19:52:30.000Z,134.7
2023-05-11T19:54:01.000Z,134.2
2023-05-11T19:55:18.000Z,127.4
2023-05-11T19:56:35.000Z,116.6
2023-05-11T19:58:05.000Z,122.2
2023-05-11T19:59:36.000Z,109.5
2023-05-11T20:01:06.000Z,126.3
2023-05-11T20:02:37.000Z,126.7
2023-05-11T20:04:08.000Z,104.3
2023-05-11T20:05:38.000Z,116.1
2023-05-11T20:07:09.000Z,113.2
2023-05-11T20:08:39.000Z,97.5
2023-05-11T20:10:10.000Z,125.1
2023-05-11T20:11:27.000Z,130.7
2023-05-11T20:12:44.000Z,121
2023-05-11T20:14:14.000Z,142.7
2023-05-11T20:15:45.000Z,130.8
2023-05-11T20:17:15.000Z,108.3
2023-05-11T20:18:46.000Z,91
2023-05-11T20:20:16.000Z,93.1
2023-05-11T20:21:47.000Z,103.3
2023-05-11T20:23:17.000Z,123.2
2023-05-11T20:24:48.000Z,108.9
2023-05-11T20:26:18.000Z,134.7
2023-05-11T20:27:35.000Z,107.7
2023-05-11T20:28:52.000Z,124.5
2023-05-11T20:30:22.000Z,99.9
2023-05-11T20:31:53.000Z,96.6
2023-05-11T20:33:23.000Z,112.1
2023-05-11T20:34:54.000Z,108.9
2023-05-11T20:36:24.000Z,96.5
2023-05-11T20:37:55.000Z,118.6
2023-05-11T20:39:25.000Z,124.6
2023-05-11T20:40:56.000Z,130.3
2023-05-11T20:42:26.000Z,111.6
2023-05-11T20:43:43.000Z,127.2
2023-05-11T20:45:00.000Z,108.2
2023-05-11T20:46:31.000Z,116.2
2023-05-11T20:48:01.000Z,116.9
2023-05-11T20:49:32.000Z,130.9
2023-05-11T20:51:02.000Z,110.7
2023-05-11T20:52:33.000Z,116.4
2023-05-11T20:54:03.000Z,108.4
2023-05-11T20:55:34.000Z,115.8
2023-05-11T20:57:04.000Z,105.6
2023-05-11T20:58:35.000Z,87.8
2023-05-11T20:59:52.000Z,111.4
2023-05-11T21:01:09.000Z,116
2023-05-11T21:02:39.000Z,103.4